Time;durP1;ratioP1;P1;durP2;ratioP2;P2;SDS_P1;SDS_P2;PMS_P1;PMS_P2;Temp;Humidity;BMP_temperature;BMP_pressure;BME280_temperature;BME280_humidity;BME280_pressure;Samples;Min_cycle;Max_cycle;Signal;HPM_P1;HPM_P2
2021/10/22 00:03:20;;;;;;;3.08;1.20;;;17.60;73.00;;;;;;10332906;28;20054;-56
2021/10/22 00:08:20;;;;;;;3.92;1.13;;;17.60;73.20;;;;;;10332695;28;20026;-56
2021/10/22 00:13:22;;;;;;;3.50;1.13;;;17.60;73.20;;;;;;10344246;28;20057;-56
2021/10/22 00:18:23;;;;;;;3.10;0.93;;;17.60;73.20;;;;;;10372698;28;20069;-56
2021/10/22 00:23:24;;;;;;;3.80;1.45;;;17.60;73.10;;;;;;10372849;28;20037;-56
2021/10/22 00:28:24;;;;;;;2.28;1.10;;;17.50;73.20;;;;;;10333494;28;20467;-56
2021/10/22 00:33:25;;;;;;;2.10;0.63;;;17.50;73.30;;;;;;10330792;28;20026;-55
2021/10/22 00:38:26;;;;;;;1.95;0.90;;;17.50;73.40;;;;;;10340177;28;20048;-56
2021/10/22 00:43:31;;;;;;;2.17;1.15;;;17.40;73.80;;;;;;10355298;28;20061;-56
2021/10/22 00:48:35;;;;;;;2.42;0.82;;;17.40;73.60;;;;;;10371161;28;20095;-56
2021/10/22 00:53:36;;;;;;;2.28;1.20;;;17.50;73.50;;;;;;10370774;28;20414;-56
2021/10/22 00:58:40;;;;;;;1.75;0.85;;;17.50;73.30;;;;;;10343344;28;20026;-56
2021/10/22 01:03:41;;;;;;;2.05;0.85;;;17.60;73.10;;;;;;10334992;28;20378;-56
2021/10/22 01:08:43;;;;;;;2.55;0.70;;;17.60;72.90;;;;;;10338460;28;20069;-56
2021/10/22 01:13:44;;;;;;;3.38;1.00;;;17.60;72.90;;;;;;10370448;28;20072;-54
2021/10/22 01:18:46;;;;;;;2.63;0.80;;;17.60;73.30;;;;;;10379647;28;20041;-56
2021/10/22 01:23:47;;;;;;;3.33;1.02;;;17.70;72.60;;;;;;10378737;28;20034;-56
2021/10/22 01:28:49;;;;;;;1.55;0.80;;;17.60;72.60;;;;;;10338883;28;20446;-55
2021/10/22 01:33:49;;;;;;;4.68;1.20;;;17.60;72.60;;;;;;10338829;28;20030;-56
2021/10/22 01:38:51;;;;;;;2.65;0.65;;;17.50;72.80;;;;;;10338369;28;20038;-56
2021/10/22 01:43:53;;;;;;;2.45;1.10;;;17.50;73.00;;;;;;10368636;28;20509;-55
2021/10/22 01:48:55;;;;;;;3.38;1.05;;;17.50;72.90;;;;;;10378391;28;20037;-56
2021/10/22 01:53:56;;;;;;;2.08;0.90;;;17.50;72.70;;;;;;10348293;28;20029;-58
2021/10/22 01:58:56;;;;;;;3.72;1.30;;;17.50;72.60;;;;;;10344404;28;20430;-55
2021/10/22 02:03:57;;;;;;;2.58;0.80;;;17.60;72.60;;;;;;10337580;28;20046;-56
2021/10/22 02:08:58;;;;;;;1.77;0.93;;;17.60;73.00;;;;;;10349329;28;20029;-56
2021/10/22 02:13:58;;;;;;;3.50;0.70;;;17.60;72.30;;;;;;10376377;28;20034;-56
2021/10/22 02:18:59;;;;;;;1.33;0.57;;;17.60;72.30;;;;;;10377544;28;20030;-56
2021/10/22 02:24:00;;;;;;;2.88;0.73;;;17.60;72.30;;;;;;10375283;28;20018;-56
2021/10/22 02:29:01;;;;;;;3.72;1.02;;;17.50;72.40;;;;;;10336620;28;20065;-56
2021/10/22 02:34:01;;;;;;;1.42;0.85;;;17.50;72.60;;;;;;10346249;28;20041;-56
2021/10/22 02:39:04;;;;;;;1.88;0.55;;;17.50;72.70;;;;;;10348088;28;20054;-56
2021/10/22 02:44:04;;;;;;;2.05;0.80;;;17.60;72.40;;;;;;10338092;28;20461;-55
2021/10/22 02:49:05;;;;;;;3.10;0.68;;;17.60;72.10;;;;;;10334578;28;20041;-56
2021/10/22 02:54:06;;;;;;;1.65;0.60;;;17.70;71.90;;;;;;10369426;28;20032;-56
2021/10/22 02:59:07;;;;;;;1.60;0.95;;;17.70;71.80;;;;;;10341762;28;20022;-56
2021/10/22 03:04:08;;;;;;;2.15;0.90;;;17.70;71.80;;;;;;10362895;28;20388;-56
2021/10/22 03:09:09;;;;;;;3.15;0.65;;;17.60;71.80;;;;;;10375640;28;20026;-56
2021/10/22 03:14:09;;;;;;;1.50;0.60;;;17.60;72.00;;;;;;10369727;28;20112;-56
2021/10/22 03:19:13;;;;;;;2.15;0.85;;;17.60;71.90;;;;;;10363318;28;20062;-56
2021/10/22 03:24:14;;;;;;;0.88;0.50;;;17.60;71.80;;;;;;10338327;28;20030;-56
2021/10/22 03:29:15;;;;;;;1.90;0.63;;;17.60;71.80;;;;;;10347415;28;20061;-56
2021/10/22 03:34:16;;;;;;;1.60;0.60;;;17.60;72.60;;;;;;10347213;28;20053;-56
2021/10/22 03:39:16;;;;;;;1.27;0.50;;;17.60;72.00;;;;;;10373091;28;20453;-56
2021/10/22 03:44:17;;;;;;;1.92;0.75;;;17.60;71.80;;;;;;10359576;28;20109;-56
2021/10/22 03:49:18;;;;;;;1.67;0.50;;;17.60;71.70;;;;;;10350519;28;20126;-56
2021/10/22 03:54:19;;;;;;;1.98;0.77;;;17.70;71.30;;;;;;10373729;28;20473;-57
2021/10/22 03:59:20;;;;;;;1.75;0.75;;;17.80;71.20;;;;;;10372588;28;20038;-56
2021/10/22 04:04:27;;;;;;;2.33;0.60;;;17.70;71.20;;;;;;10373652;28;20365;-56
2021/10/22 04:09:31;;;;;;;3.08;0.90;;;17.70;71.30;;;;;;10373435;28;20457;-56
2021/10/22 04:14:32;;;;;;;2.97;0.93;;;17.70;71.40;;;;;;10373250;28;20033;-54
2021/10/22 04:19:33;;;;;;;2.13;0.70;;;17.70;71.20;;;;;;10372605;28;20033;-56
2021/10/22 04:24:34;;;;;;;3.83;1.08;;;17.70;71.20;;;;;;10350706;28;20042;-56
2021/10/22 04:29:35;;;;;;;1.60;0.60;;;17.70;71.20;;;;;;10369335;28;20074;-56
2021/10/22 04:34:35;;;;;;;3.42;1.48;;;17.70;71.20;;;;;;10369211;28;20049;-54
2021/10/22 04:44:55;;;;;;;1.73;0.80;;;17.80;71.30;;;;;;10340279;28;20054;-57
2021/10/22 04:49:56;;;;;;;2.65;0.70;;;18.00;70.10;;;;;;10347288;28;20070;-56
2021/10/22 04:54:57;;;;;;;2.22;0.70;;;18.20;69.60;;;;;;10351782;28;20498;-56
2021/10/22 04:59:57;;;;;;;2.45;0.70;;;18.20;69.20;;;;;;10349168;28;20030;-56
2021/10/22 05:04:58;;;;;;;3.15;0.77;;;18.30;69.20;;;;;;10329868;28;20113;-56
2021/10/22 05:09:58;;;;;;;4.07;1.15;;;18.50;69.10;;;;;;10342151;28;20121;-57
2021/10/22 05:15:00;;;;;;;4.43;1.15;;;18.40;70.20;;;;;;10330142;28;20105;-54
2021/10/22 05:20:07;;;;;;;4.30;0.90;;;18.50;70.20;;;;;;10360573;28;20030;-56
2021/10/22 05:25:11;;;;;;;4.03;0.90;;;18.60;70.70;;;;;;10362581;28;20501;-57
2021/10/22 05:30:13;;;;;;;5.53;0.90;;;18.60;70.40;;;;;;10340281;28;20053;-56
2021/10/22 05:35:14;;;;;;;4.47;0.80;;;18.70;70.30;;;;;;10368293;28;20113;-53
2021/10/22 05:40:14;;;;;;;4.50;1.05;;;18.70;70.30;;;;;;10366220;28;20389;-56
2021/10/22 05:45:15;;;;;;;4.05;0.77;;;18.60;71.00;;;;;;10332242;28;20375;-56
2021/10/22 05:50:16;;;;;;;4.82;1.20;;;18.50;71.50;;;;;;10333495;28;20109;-56
2021/10/22 05:55:17;;;;;;;12.00;2.28;;;18.50;71.50;;;;;;10347490;28;20109;-53
2021/10/22 06:00:17;;;;;;;10.77;2.00;;;18.60;70.90;;;;;;10337921;28;20035;-56
2021/10/22 06:05:18;;;;;;;8.18;2.03;;;18.60;71.00;;;;;;10337362;28;20098;-53
2021/10/22 06:10:19;;;;;;;15.32;2.42;;;18.60;71.20;;;;;;10328249;28;20038;-55
2021/10/22 06:15:19;;;;;;;19.95;2.20;;;18.50;71.50;;;;;;10366054;28;20030;-51
2021/10/22 06:20:40;;;;;;;14.30;1.80;;;18.50;71.50;;;;;;10359664;28;20405;-51
2021/10/22 06:25:42;;;;;;;11.88;2.10;;;18.40;71.20;;;;;;10361124;28;20601;-48
2021/10/22 06:30:43;;;;;;;9.15;1.50;;;18.40;71.20;;;;;;10330734;28;20394;-51
2021/10/22 06:35:46;;;;;;;11.95;2.10;;;18.40;71.70;;;;;;10344033;28;20062;-51
2021/10/22 06:40:47;;;;;;;9.88;1.77;;;18.40;71.80;;;;;;10347699;28;20064;-51
2021/10/22 06:45:49;;;;;;;13.60;1.38;;;18.30;72.10;;;;;;10373006;28;20036;-49
2021/10/22 06:50:50;;;;;;;10.43;1.25;;;18.40;72.00;;;;;;10374114;28;20034;-53
2021/10/22 06:55:50;;;;;;;8.38;1.90;;;18.40;71.90;;;;;;10375357;28;20347;-55
2021/10/22 07:00:51;;;;;;;6.07;1.50;;;18.50;71.90;;;;;;10374342;28;20038;-49
2021/10/22 07:10:59;;;;;;;9.45;1.70;;;18.60;71.90;;;;;;10373194;28;20038;-55
2021/10/22 07:15:59;;;;;;;4.97;1.25;;;18.50;72.30;;;;;;10373452;28;20453;-56
2021/10/22 07:21:00;;;;;;;5.03;1.42;;;18.40;72.40;;;;;;10373715;28;20113;-57
2021/10/22 07:26:01;;;;;;;11.85;1.95;;;18.40;72.80;;;;;;10371625;28;20129;-57
2021/10/22 07:31:02;;;;;;;8.43;1.42;;;18.30;72.90;;;;;;10373599;28;20210;-56
2021/10/22 07:36:06;;;;;;;8.77;1.45;;;18.30;73.00;;;;;;10374290;28;20026;-53
2021/10/22 07:41:06;;;;;;;11.25;1.67;;;18.20;73.20;;;;;;10372745;28;20138;-55
2021/10/22 07:46:07;;;;;;;5.22;1.23;;;18.20;73.40;;;;;;10373066;28;20104;-55
2021/10/22 07:51:08;;;;;;;8.10;1.85;;;18.20;73.40;;;;;;10334124;28;20034;-56
2021/10/22 07:56:10;;;;;;;8.30;1.92;;;18.10;73.50;;;;;;10334648;28;20021;-57
2021/10/22 08:01:10;;;;;;;7.50;1.60;;;18.10;73.60;;;;;;10360843;28;20029;-55
2021/10/22 08:06:13;;;;;;;17.33;2.75;;;18.20;73.60;;;;;;10372622;28;20092;-55
2021/10/22 08:11:16;;;;;;;7.10;1.70;;;18.20;73.20;;;;;;10371487;28;20038;-57
2021/10/22 08:16:17;;;;;;;13.15;1.50;;;18.20;73.40;;;;;;10372304;28;20025;-56
2021/10/22 08:21:21;;;;;;;14.45;2.40;;;18.20;73.50;;;;;;10371792;28;20037;-50
2021/10/22 08:26:22;;;;;;;10.48;2.10;;;18.20;73.40;;;;;;10350690;28;20034;-54
2021/10/22 08:31:23;;;;;;;9.43;2.20;;;18.10;73.30;;;;;;10345569;28;20121;-55
2021/10/22 08:36:24;;;;;;;11.50;1.90;;;18.10;73.50;;;;;;10366883;28;20034;-56
2021/10/22 08:41:27;;;;;;;6.57;1.90;;;18.10;73.10;;;;;;10371166;28;20061;-55
2021/10/22 08:46:28;;;;;;;9.57;1.60;;;18.00;73.50;;;;;;10371558;28;20038;-55
2021/10/22 08:51:28;;;;;;;9.70;1.63;;;18.00;73.70;;;;;;10364563;28;20036;-54
2021/10/22 08:56:30;;;;;;;11.68;1.90;;;18.00;73.30;;;;;;10371071;28;20101;-57
2021/10/22 09:01:31;;;;;;;8.57;1.48;;;18.00;73.40;;;;;;10371654;28;20772;-57
2021/10/22 09:06:49;;;;;;;12.20;2.22;;;17.90;73.40;;;;;;10371536;28;20053;-57
2021/10/22 09:11:50;;;;;;;9.07;1.45;;;18.00;73.30;;;;;;10368841;28;20041;-57
2021/10/22 09:16:53;;;;;;;6.70;1.95;;;18.00;73.30;;;;;;10362192;28;20049;-54
2021/10/22 09:21:53;;;;;;;9.63;3.05;;;18.00;73.10;;;;;;10357402;28;20030;-54
2021/10/22 09:26:57;;;;;;;14.18;1.98;;;18.10;72.90;;;;;;10374983;28;20466;-56
2021/10/22 09:31:58;;;;;;;5.63;1.92;;;18.00;72.60;;;;;;10345943;28;20029;-56
2021/10/22 09:37:00;;;;;;;11.27;2.78;;;18.10;72.90;;;;;;10376579;28;20059;-54
2021/10/22 09:42:03;;;;;;;10.98;1.85;;;18.30;72.70;;;;;;10377562;28;20175;-55
2021/10/22 09:47:03;;;;;;;11.20;2.25;;;18.30;72.80;;;;;;10372502;28;20026;-56
2021/10/22 09:52:31;;;;;;;7.88;1.40;;;18.20;73.00;;;;;;10363337;28;20042;-54
2021/10/22 09:57:32;;;;;;;10.63;2.00;;;18.20;73.00;;;;;;10351290;28;20486;-50
2021/10/22 10:02:35;;;;;;;12.73;2.92;;;18.10;72.90;;;;;;10375112;28;20029;-54
2021/10/22 10:07:45;;;;;;;9.48;1.80;;;18.20;72.70;;;;;;10364901;28;20033;-54
2021/10/22 10:12:46;;;;;;;8.60;2.08;;;18.20;72.40;;;;;;10346957;28;20053;-53
2021/10/22 10:17:50;;;;;;;12.45;2.25;;;18.30;72.50;;;;;;10363671;28;20504;-56
2021/10/22 10:22:52;;;;;;;14.48;2.67;;;18.30;73.00;;;;;;10353382;28;20486;-54
2021/10/22 10:27:56;;;;;;;8.35;2.47;;;18.30;73.50;;;;;;10366897;28;20061;-57
2021/10/22 10:32:57;;;;;;;11.95;1.95;;;18.40;72.90;;;;;;10344909;28;20023;-58
2021/10/22 10:37:58;;;;;;;15.75;2.35;;;18.50;73.10;;;;;;10333923;28;20097;-56
2021/10/22 10:43:06;;;;;;;11.10;2.00;;;18.50;73.10;;;;;;10335638;28;20548;-56
2021/10/22 10:48:21;;;;;;;11.93;1.63;;;18.50;73.40;;;;;;10333422;28;20054;-55
2021/10/22 10:53:45;;;;;;;12.55;1.98;;;18.50;73.40;;;;;;10369936;28;20030;-56
2021/10/22 10:58:46;;;;;;;6.20;1.67;;;18.40;73.40;;;;;;10357099;28;20035;-56
2021/10/22 11:03:47;;;;;;;19.15;2.42;;;18.30;73.30;;;;;;10332782;28;20433;-56
2021/10/22 11:08:49;;;;;;;9.32;1.85;;;18.20;73.80;;;;;;10332470;28;20038;-53
2021/10/22 11:14:02;;;;;;;11.63;2.33;;;18.20;74.10;;;;;;10365265;28;20075;-58
2021/10/22 11:19:09;;;;;;;11.35;2.65;;;18.10;74.00;;;;;;10372031;28;20026;-50
2021/10/22 11:24:21;;;;;;;17.13;2.63;;;18.10;74.70;;;;;;10352650;28;20037;-57
2021/10/22 11:29:22;;;;;;;13.90;2.88;;;18.20;74.90;;;;;;10334356;28;20528;-55
2021/10/22 11:34:27;;;;;;;16.70;2.72;;;18.20;74.90;;;;;;10337377;28;20036;-55
2021/10/22 11:39:30;;;;;;;17.02;2.45;;;18.10;74.50;;;;;;10332621;28;20133;-57
2021/10/22 11:44:36;;;;;;;31.30;3.40;;;18.10;74.70;;;;;;10333097;28;20036;-56
2021/10/22 11:49:38;;;;;;;17.55;3.00;;;18.10;74.60;;;;;;10331671;28;20030;-55
2021/10/22 11:54:49;;;;;;;20.40;3.30;;;18.10;75.00;;;;;;10369992;28;20126;-56
2021/10/22 11:59:57;;;;;;;20.17;3.05;;;18.10;74.70;;;;;;10370878;28;20398;-55
2021/10/22 12:05:07;;;;;;;26.30;4.35;;;18.10;74.90;;;;;;10371032;28;20033;-50
2021/10/22 12:10:12;;;;;;;18.15;3.20;;;18.10;74.60;;;;;;10372527;28;20034;-53
2021/10/22 12:15:30;;;;;;;18.15;3.03;;;18.00;74.80;;;;;;10372197;28;20018;-55
2021/10/22 12:20:33;;;;;;;22.67;3.55;;;18.10;74.90;;;;;;10372160;28;20401;-56
2021/10/22 12:25:34;;;;;;;14.25;3.08;;;18.00;74.50;;;;;;10363467;28;20034;-55
2021/10/22 12:30:35;;;;;;;22.50;3.60;;;;;;;;;;10334113;28;20468;-55
2021/10/22 12:35:45;;;;;;;16.88;2.95;;;;;;;;;;10338745;28;20041;-55
2021/10/22 12:40:52;;;;;;;21.08;3.22;;;;;;;;;;10371614;28;20038;-56
2021/10/22 12:45:59;;;;;;;18.05;4.28;;;;;;;;;;10371657;28;20038;-54
2021/10/22 12:51:13;;;;;;;9.75;2.60;;;;;;;;;;10362982;28;20118;-56
2021/10/22 12:56:25;;;;;;;16.27;2.70;;;;;;;;;;10357257;28;20057;-56
2021/10/22 13:01:31;;;;;;;25.48;3.58;;;;;;;;;;10378286;28;20025;-56
2021/10/22 13:06:48;;;;;;;13.65;3.38;;;;;;;;;;10378887;28;20034;-59
2021/10/22 13:20:23;;;;;;;13.18;2.53;;;;;;;;;;10378756;28;20092;-55
2021/10/22 13:22:39;;;;;;;8.77;2.57;;;;;;;;;;10363603;28;20482;-57
2021/10/22 13:27:40;;;;;;;14.07;2.83;;;;;;;;;;10355163;28;20026;-57
2021/10/22 13:32:43;;;;;;;9.68;2.33;;;;;;;;;;10336919;28;20063;-55
2021/10/22 13:37:44;;;;;;;13.50;3.03;;;;;;;;;;10337120;28;20050;-55
2021/10/22 13:42:47;;;;;;;11.48;2.35;;;;;;;;;;10336975;28;20355;-57
2021/10/22 13:47:48;;;;;;;16.75;2.75;;;;;;;;;;10337443;28;20037;-55
2021/10/22 13:52:49;;;;;;;26.20;3.95;;;;;;;;;;10361335;28;20029;-55
2021/10/22 13:57:50;;;;;;;9.88;2.50;;;;;;;;;;10374909;28;20049;-54
2021/10/22 14:02:51;;;;;;;20.48;3.83;;;;;;;;;;10377057;28;20034;-56
2021/10/22 14:07:52;;;;;;;26.00;3.67;;;;;;;;;;10375853;28;20454;-55
2021/10/22 14:33:54;;;;;;;14.95;2.70;;;;;;;;;;10375785;28;20579;-54
2021/10/22 14:38:55;;;;;;;21.52;4.80;;;;;;;;;;10375422;28;20084;-55
2021/10/22 14:44:02;;;;;;;10.23;2.53;;;;;;;;;;10361755;28;20418;-56
2021/10/22 14:49:14;;;;;;;22.55;2.75;;;;;;;;;;10362152;28;20564;-55
2021/10/22 14:54:26;;;;;;;17.08;3.13;;;;;;;;;;10370550;28;20080;-56
2021/10/22 14:59:31;;;;;;;13.93;3.10;;;;;;;;;;10374677;28;20064;-55
2021/10/22 15:04:32;;;;;;;10.85;2.25;;;;;;;;;;10374848;28;20041;-56
2021/10/22 15:09:33;;;;;;;17.05;2.20;;;;;;;;;;10359679;28;20030;-56
2021/10/22 15:14:37;;;;;;;16.02;2.72;;;;;;;;;;10345974;28;20035;-54
2021/10/22 15:19:38;;;;;;;15.23;3.13;;;;;;;;;;10361547;28;20436;-55
2021/10/22 15:24:39;;;;;;;15.13;2.90;;;;;;;;;;10366262;28;20034;-56
2021/10/22 15:29:40;;;;;;;14.23;2.50;;;;;;;;;;10343928;28;20038;-57
2021/10/22 15:34:41;;;;;;;14.48;2.97;;;;;;;;;;10333083;28;20623;-57
2021/10/22 15:39:42;;;;;;;12.73;2.55;;;;;;;;;;10345006;28;20042;-54
2021/10/22 15:44:43;;;;;;;11.45;2.15;;;;;;;;;;10354423;28;20052;-57
2021/10/22 15:49:51;;;;;;;12.73;2.72;;;;;;;;;;10353034;28;20054;-56
2021/10/22 15:54:53;;;;;;;10.20;3.17;;;;;;;;;;10355629;28;20030;-57
2021/10/22 15:59:55;;;;;;;15.88;2.92;;;;;;;;;;10357647;28;20423;-56
2021/10/22 16:04:58;;;;;;;15.40;3.72;;;;;;;;;;10353579;28;20493;-55
2021/10/22 16:10:05;;;;;;;8.48;1.95;;;;;;;;;;10360367;28;20084;-53
2021/10/22 16:15:18;;;;;;;19.60;2.35;;;;;;;;;;10351018;28;20030;-54
2021/10/22 16:20:19;;;;;;;9.38;3.28;;;;;;;;;;10344017;28;20071;-49
2021/10/22 16:25:21;;;;;;;12.50;2.10;;;;;;;;;;10341319;28;20032;-51
2021/10/22 16:30:23;;;;;;;6.40;2.05;;;;;;;;;;10343581;28;20034;-52
2021/10/22 16:35:42;;;;;;;9.32;2.08;;;;;;;;;;10357443;28;20470;-56
2021/10/22 16:40:44;;;;;;;9.43;1.75;;;;;;;;;;10371394;28;20045;-54
2021/10/22 16:45:49;;;;;;;8.70;2.45;;;;;;;;;;10359917;28;20025;-54
2021/10/22 16:50:50;;;;;;;9.50;2.13;;;;;;;;;;10361212;28;20033;-53
2021/10/22 16:55:51;;;;;;;8.38;2.35;;;;;;;;;;10371563;28;20049;-56
2021/10/22 17:00:52;;;;;;;8.18;1.83;;;;;;;;;;10356528;28;20038;-57
2021/10/22 17:05:53;;;;;;;7.53;2.28;;;;;;;;;;10365167;28;20105;-55
2021/10/22 17:10:55;;;;;;;8.07;1.88;;;;;;;;;;10331424;28;20541;-55
2021/10/22 17:15:56;;;;;;;7.50;1.70;;;;;;;;;;10329678;28;20038;-57
2021/10/22 17:20:57;;;;;;;5.72;2.03;;;;;;;;;;10336122;28;20040;-55
2021/10/22 17:25:58;;;;;;;5.20;1.75;;;18.40;73.50;;;;;;10366769;28;20029;-57
2021/10/22 17:30:58;;;;;;;7.57;1.55;;;18.30;74.70;;;;;;10360459;28;20030;-55
2021/10/22 17:36:01;;;;;;;9.35;1.83;;;18.30;76.20;;;;;;10356954;28;20026;-56
2021/10/22 17:41:04;;;;;;;6.13;1.75;;;18.40;76.30;;;;;;10361651;28;20171;-50
2021/10/22 17:46:04;;;;;;;7.13;2.25;;;18.40;76.10;;;;;;10372671;28;20029;-56
2021/10/22 17:51:06;;;;;;;6.32;1.75;;;18.30;75.80;;;;;;10370692;28;20034;-51
2021/10/22 17:56:06;;;;;;;2.83;1.30;;;18.40;75.90;;;;;;10400705;28;20029;-51
2021/10/22 18:01:08;;;;;;;6.90;1.48;;;18.40;75.30;;;;;;10378764;28;20462;-54
2021/10/22 18:06:10;;;;;;;5.65;1.92;;;18.40;75.40;;;;;;10365074;28;20034;-52
2021/10/22 18:11:12;;;;;;;4.57;1.27;;;18.30;75.70;;;;;;10380941;28;20029;-51
2021/10/22 18:16:14;;;;;;;5.10;1.63;;;18.20;75.70;;;;;;10385309;28;20049;-56
2021/10/22 18:21:15;;;;;;;3.08;1.42;;;18.10;76.00;;;;;;10380546;28;20022;-55
2021/10/22 18:26:16;;;;;;;6.13;1.35;;;18.10;76.20;;;;;;10383516;28;20037;-51
2021/10/22 18:31:21;;;;;;;4.13;1.50;;;18.10;76.20;;;;;;10370258;28;20045;-54
2021/10/22 18:36:22;;;;;;;3.88;1.52;;;18.10;76.20;;;;;;10391327;28;20040;-53
2021/10/22 18:41:23;;;;;;;7.05;1.63;;;18.10;76.50;;;;;;10384498;28;20092;-56
2021/10/22 18:46:25;;;;;;;4.25;1.45;;;18.10;76.30;;;;;;10374930;28;20049;-55
2021/10/22 18:51:26;;;;;;;4.03;1.45;;;18.10;75.80;;;;;;10391784;28;20034;-56
2021/10/22 18:56:26;;;;;;;5.50;1.90;;;18.00;75.90;;;;;;10395818;28;20501;-53
2021/10/22 19:01:31;;;;;;;3.90;1.35;;;18.00;75.90;;;;;;10391470;28;20061;-53
2021/10/22 19:06:35;;;;;;;3.00;1.15;;;18.00;75.90;;;;;;10392658;28;20512;-55
2021/10/22 19:11:39;;;;;;;4.35;1.33;;;18.10;75.60;;;;;;10378479;28;20026;-55
2021/10/22 19:16:40;;;;;;;3.28;1.45;;;18.10;75.30;;;;;;10375112;28;20044;-55
2021/10/22 19:21:41;;;;;;;4.88;1.35;;;18.00;75.30;;;;;;10374969;28;20052;-55
2021/10/22 19:26:44;;;;;;;5.15;1.52;;;18.00;75.30;;;;;;10362816;28;20045;-56
2021/10/22 19:31:45;;;;;;;6.43;1.33;;;18.00;74.80;;;;;;10343264;28;20026;-54
2021/10/22 19:36:48;;;;;;;4.82;1.30;;;17.90;75.30;;;;;;10354523;28;20072;-55
2021/10/22 19:41:50;;;;;;;5.72;1.60;;;17.90;75.50;;;;;;10371522;28;20061;-55
2021/10/22 19:46:51;;;;;;;2.47;1.02;;;17.80;75.50;;;;;;10372249;28;20486;-53
2021/10/22 19:51:51;;;;;;;4.03;1.27;;;17.80;75.50;;;;;;10360140;28;20046;-53
2021/10/22 19:56:52;;;;;;;4.20;1.20;;;17.80;75.60;;;;;;10340162;28;20025;-55
2021/10/22 20:01:53;;;;;;;5.47;1.58;;;17.70;75.50;;;;;;10346864;28;20034;-55
2021/10/22 20:06:54;;;;;;;4.07;1.40;;;17.70;75.70;;;;;;10372734;28;20109;-55
2021/10/22 20:11:55;;;;;;;4.32;1.20;;;17.60;75.60;;;;;;10357631;28;20030;-55
2021/10/22 20:16:55;;;;;;;3.42;1.30;;;17.60;75.50;;;;;;10340212;28;20076;-53
2021/10/22 20:21:56;;;;;;;4.65;1.90;;;17.60;75.40;;;;;;10372949;28;20516;-54
2021/10/22 20:26:57;;;;;;;3.50;1.63;;;17.60;75.50;;;;;;10347131;28;20022;-56
2021/10/22 20:31:58;;;;;;;3.47;1.58;;;17.50;75.30;;;;;;10348805;28;20061;-54
2021/10/22 20:36:58;;;;;;;2.50;1.30;;;17.50;75.30;;;;;;10372336;28;20032;-55
2021/10/22 20:42:01;;;;;;;2.17;1.33;;;17.50;75.30;;;;;;10372311;28;20050;-56
2021/10/22 20:47:08;;;;;;;4.78;1.50;;;17.50;75.30;;;;;;10372089;28;20045;-55
2021/10/22 20:57:30;;;;;;;4.47;1.50;;;17.40;75.20;;;;;;10371414;28;20046;-55
2021/10/22 21:02:31;;;;;;;3.33;1.27;;;17.40;75.30;;;;;;10372442;28;20087;-56
2021/10/22 21:07:33;;;;;;;2.67;1.40;;;17.40;75.20;;;;;;10371030;28;20048;-55
2021/10/22 21:12:34;;;;;;;2.78;1.40;;;17.40;75.00;;;;;;10349115;28;20038;-55
2021/10/22 21:17:35;;;;;;;2.08;1.35;;;17.50;74.70;;;;;;10342395;28;20105;-55
2021/10/22 21:22:35;;;;;;;2.75;1.30;;;17.50;74.70;;;;;;10342842;28;20033;-51
2021/10/22 21:27:36;;;;;;;3.63;1.45;;;17.40;74.60;;;;;;10370005;28;20113;-55
2021/10/22 21:32:37;;;;;;;4.93;1.63;;;17.40;74.70;;;;;;10379406;28;20033;-53
2021/10/22 21:37:38;;;;;;;3.53;1.33;;;17.50;74.50;;;;;;10379088;28;20049;-52
2021/10/22 21:42:40;;;;;;;5.80;1.40;;;17.50;74.30;;;;;;10379458;28;20026;-53
2021/10/22 21:47:42;;;;;;;2.47;1.13;;;17.60;74.10;;;;;;10375120;28;20100;-53
2021/10/22 21:52:43;;;;;;;2.13;1.17;;;17.60;74.00;;;;;;10360218;28;20069;-53
2021/10/22 21:57:44;;;;;;;3.30;1.30;;;17.60;73.70;;;;;;10346518;28;20425;-51
2021/10/22 22:02:44;;;;;;;2.80;1.30;;;17.60;73.50;;;;;;10350887;28;20486;-55
2021/10/22 22:07:45;;;;;;;6.60;1.75;;;17.60;73.50;;;;;;10352514;28;20030;-54
2021/10/22 22:12:46;;;;;;;4.35;1.65;;;17.60;73.40;;;;;;10377802;28;20112;-56
2021/10/22 22:17:47;;;;;;;2.72;1.35;;;17.60;73.40;;;;;;10377251;28;20042;-54
2021/10/22 22:22:47;;;;;;;1.42;1.05;;;17.60;73.50;;;;;;10377425;28;20045;-54
2021/10/22 22:27:50;;;;;;;2.92;1.60;;;17.60;73.50;;;;;;10359372;28;20366;-55
2021/10/22 22:32:51;;;;;;;3.17;1.40;;;17.60;73.40;;;;;;10374876;28;20044;-54
2021/10/22 22:37:53;;;;;;;2.80;1.40;;;17.60;73.10;;;;;;10368820;28;20042;-55
2021/10/22 22:42:54;;;;;;;1.85;1.00;;;17.70;72.90;;;;;;10348288;28;20041;-55
2021/10/22 22:47:55;;;;;;;2.53;1.40;;;17.70;72.80;;;;;;10358994;28;20041;-56
2021/10/22 22:52:56;;;;;;;4.43;1.58;;;17.70;72.90;;;;;;10376005;28;20052;-54
2021/10/22 22:57:59;;;;;;;1.75;0.90;;;17.60;72.90;;;;;;10375905;28;20040;-55
2021/10/22 23:03:00;;;;;;;2.17;1.25;;;17.60;73.00;;;;;;10375902;28;20466;-55
2021/10/22 23:08:01;;;;;;;4.80;1.50;;;17.60;72.90;;;;;;10375964;28;20029;-55
2021/10/22 23:13:02;;;;;;;2.63;1.40;;;17.60;72.70;;;;;;10360528;28;20401;-55
2021/10/22 23:18:03;;;;;;;2.45;1.60;;;17.70;72.50;;;;;;10347259;28;20113;-56
2021/10/22 23:23:05;;;;;;;2.10;1.35;;;17.80;72.30;;;;;;10361814;28;20034;-53
2021/10/22 23:28:06;;;;;;;2.85;1.30;;;17.70;72.30;;;;;;10340021;28;20109;-54
2021/10/22 23:33:06;;;;;;;4.20;1.20;;;17.70;72.30;;;;;;10344592;28;20466;-54
2021/10/22 23:38:07;;;;;;;2.78;1.40;;;17.70;72.40;;;;;;10349689;28;20549;-55
2021/10/22 23:43:08;;;;;;;3.15;1.38;;;17.70;72.30;;;;;;10374457;28;20105;-53
2021/10/22 23:48:08;;;;;;;3.67;1.40;;;17.70;72.10;;;;;;10374447;28;20157;-52
2021/10/22 23:53:09;;;;;;;2.05;1.10;;;17.70;72.10;;;;;;10355130;28;20453;-55
2021/10/22 23:58:10;;;;;;;2.92;1.35;;;17.60;72.20;;;;;;10372595;28;20036;-54
